Time;durP1;ratioP1;P1;durP2;ratioP2;P2;SDS_P1;SDS_P2;PMS_P1;PMS_P2;Temp;Humidity;BMP_temperature;BMP_pressure;BME280_temperature;BME280_humidity;BME280_pressure;Samples;Min_cycle;Max_cycle;Signal;HPM_P1;HPM_P2
2022/09/15 00:01:30;;;;;;;21.20;9.23;;;;;;;12.68;100.00;100573.75;5037154;28;20048;-86
2022/09/15 00:03:56;;;;;;;19.35;9.00;;;;;;;12.67;100.00;100569.38;5048150;28;20503;-87
2022/09/15 00:06:21;;;;;;;24.70;9.95;;;;;;;12.65;100.00;100569.50;5047732;28;20029;-86
2022/09/15 00:08:46;;;;;;;22.30;10.70;;;;;;;12.62;100.00;100564.38;5049165;28;20384;-87
2022/09/15 00:11:18;;;;;;;23.45;10.40;;;;;;;12.62;100.00;100566.19;5048100;28;20076;-87
2022/09/15 00:13:44;;;;;;;23.55;10.85;;;;;;;12.58;100.00;100566.47;5047957;28;20051;-86
2022/09/15 00:16:10;;;;;;;21.95;9.95;;;;;;;12.58;100.00;100562.94;5033215;28;20025;-87
2022/09/15 00:18:37;;;;;;;25.85;10.70;;;;;;;12.55;100.00;100569.44;5030223;28;20083;-87
2022/09/15 00:21:08;;;;;;;22.13;10.77;;;;;;;12.54;100.00;100567.72;5045563;28;20033;-87
2022/09/15 00:23:33;;;;;;;24.98;11.05;;;;;;;12.52;100.00;100566.16;5043603;28;20024;-87
2022/09/15 00:25:59;;;;;;;27.45;11.93;;;;;;;12.57;100.00;100564.75;5050517;28;20468;-87
2022/09/15 00:28:24;;;;;;;26.35;11.05;;;;;;;12.58;100.00;100563.78;5049392;28;20130;-86
2022/09/15 00:30:53;;;;;;;23.95;12.05;;;;;;;12.60;100.00;100563.63;5047209;28;20021;-86
2022/09/15 00:33:21;;;;;;;27.05;12.65;;;;;;;12.62;100.00;100555.41;5045508;28;20025;-86
2022/09/15 00:35:52;;;;;;;25.58;11.52;;;;;;;12.66;100.00;100548.78;5047091;28;20034;-87
2022/09/15 00:38:18;;;;;;;27.10;12.15;;;;;;;12.70;100.00;100547.53;5049223;28;20039;-87
2022/09/15 00:40:50;;;;;;;24.52;12.35;;;;;;;12.71;100.00;100542.00;5047651;28;20032;-87
2022/09/15 00:43:18;;;;;;;25.85;12.77;;;;;;;12.75;100.00;100547.97;5047730;28;20025;-86
2022/09/15 00:45:44;;;;;;;27.25;12.82;;;;;;;12.77;100.00;100546.00;5039110;28;20036;-86
2022/09/15 00:48:18;;;;;;;22.85;12.02;;;;;;;12.81;100.00;100544.75;5048016;28;20025;-86
2022/09/15 00:50:50;;;;;;;27.17;13.07;;;;;;;12.86;100.00;100550.56;5045678;28;20033;-87
2022/09/15 00:53:18;;;;;;;24.58;12.73;;;;;;;12.88;100.00;100550.44;5048339;28;20043;-87
2022/09/15 00:55:47;;;;;;;23.95;12.60;;;;;;;12.89;100.00;100555.69;5048258;28;20053;-87
2022/09/15 00:58:39;;;;;;;29.00;14.35;;;;;;;12.94;100.00;100556.16;5048695;28;20028;-87
2022/09/15 01:01:07;;;;;;;26.08;13.55;;;;;;;12.92;100.00;100560.81;5036243;28;20079;-84
2022/09/15 01:03:33;;;;;;;26.20;13.35;;;;;;;12.95;100.00;100554.31;5046568;28;20043;-84
2022/09/15 01:06:25;;;;;;;25.02;14.02;;;;;;;12.96;100.00;100555.16;5049747;28;20041;-84
2022/09/15 01:09:02;;;;;;;26.20;13.85;;;;;;;12.97;100.00;100556.88;5026871;28;20045;-84
2022/09/15 01:11:28;;;;;;;25.08;12.98;;;;;;;12.99;100.00;100550.34;5030224;28;20045;-84
2022/09/15 01:13:53;;;;;;;30.73;13.40;;;;;;;13.00;100.00;100552.06;5036360;28;20021;-84
2022/09/15 01:16:37;;;;;;;26.20;13.88;;;;;;;13.03;100.00;100556.31;5047728;28;20032;-84
2022/09/15 01:20:00;;;;;;;26.95;14.68;;;;;;;13.06;100.00;100556.03;5031783;28;20405;-84
2022/09/15 01:22:51;;;;;;;26.70;14.27;;;;;;;13.04;100.00;100545.38;4991453;28;20100;-84
2022/09/15 01:25:42;;;;;;;25.40;14.88;;;;;;;13.06;100.00;100538.03;5006921;28;20124;-84
2022/09/15 01:28:10;;;;;;;23.80;13.63;;;;;;;13.07;100.00;100547.81;5008488;28;20133;-84
2022/09/15 01:30:43;;;;;;;26.63;14.60;;;;;;;13.09;100.00;100545.00;4988203;28;20061;-84
2022/09/15 01:33:48;;;;;;;26.77;15.10;;;;;;;13.15;100.00;100546.28;5005526;28;20038;-84
2022/09/15 01:36:21;;;;;;;25.25;13.55;;;;;;;13.13;100.00;100543.72;5005063;28;20049;-84
2022/09/15 01:38:59;;;;;;;23.65;12.70;;;;;;;13.12;100.00;100539.34;5007935;28;20054;-84
2022/09/15 01:42:05;;;;;;;27.55;13.98;;;;;;;13.16;100.00;100551.53;4990994;28;20096;-84
2022/09/15 01:45:02;;;;;;;26.60;14.52;;;;;;;13.13;100.00;100546.41;5004029;28;20038;-84
2022/09/15 01:47:29;;;;;;;25.60;13.82;;;;;;;13.08;100.00;100551.38;4979734;28;20034;-84
2022/09/15 01:50:04;;;;;;;24.13;13.23;;;;;;;13.06;100.00;100551.53;4989284;28;20049;-84
2022/09/15 01:52:32;;;;;;;23.23;11.23;;;;;;;13.00;100.00;100551.19;5007053;28;20048;-84
2022/09/15 01:55:05;;;;;;;26.10;12.70;;;;;;;12.97;100.00;100551.47;4983357;28;20379;-84
2022/09/15 01:57:32;;;;;;;25.05;12.32;;;;;;;12.91;100.00;100545.66;5045826;28;20044;-84
2022/09/15 02:00:01;;;;;;;24.35;12.40;;;;;;;12.87;100.00;100554.13;5045012;28;20039;-84
2022/09/15 02:02:36;;;;;;;25.63;11.95;;;;;;;12.81;100.00;100551.97;5044604;28;20026;-84
2022/09/15 02:05:10;;;;;;;22.35;11.55;;;;;;;12.78;100.00;100553.06;5033588;28;20447;-84
2022/09/15 02:07:49;;;;;;;23.63;13.00;;;;;;;12.78;100.00;100547.69;5046872;28;20112;-84
2022/09/15 02:10:42;;;;;;;27.42;13.05;;;;;;;12.81;100.00;100549.28;5041226;28;20102;-84
2022/09/15 02:13:38;;;;;;;24.35;13.30;;;;;;;12.81;100.00;100551.97;5050989;28;20562;-84
2022/09/15 02:16:12;;;;;;;26.23;12.27;;;;;;;12.81;100.00;100547.44;5045607;28;20059;-84
2022/09/15 02:18:44;;;;;;;27.90;13.75;;;;;;;12.82;100.00;100549.13;5051594;28;20079;-84
2022/09/15 02:21:33;;;;;;;25.05;13.65;;;;;;;12.86;100.00;100547.03;5051007;28;20028;-84
2022/09/15 02:24:09;;;;;;;26.85;13.80;;;;;;;12.87;100.00;100548.72;5052162;28;20020;-84
2022/09/15 02:26:39;;;;;;;23.77;12.35;;;;;;;12.85;100.00;100539.94;5049881;28;20029;-84
2022/09/15 02:29:08;;;;;;;26.25;13.27;;;;;;;12.83;100.00;100544.63;5050904;28;20090;-84
2022/09/15 02:31:38;;;;;;;24.92;12.00;;;;;;;12.79;100.00;100549.41;5044919;28;20041;-84
2022/09/15 02:34:14;;;;;;;22.90;12.52;;;;;;;12.79;100.00;100545.88;5051782;28;20025;-84
2022/09/15 02:36:41;;;;;;;26.33;13.15;;;;;;;12.75;100.00;100550.66;5050476;28;20028;-84
2022/09/15 02:39:11;;;;;;;22.17;12.25;;;;;;;12.71;100.00;100542.00;5051436;28;20029;-84
2022/09/15 02:41:36;;;;;;;23.85;12.85;;;;;;;12.70;100.00;100539.44;5052451;28;20029;-84
2022/09/15 02:44:02;;;;;;;23.23;12.23;;;;;;;12.65;100.00;100539.84;5049944;28;20116;-84
2022/09/15 02:46:28;;;;;;;23.20;12.30;;;;;;;12.61;100.00;100545.59;5040685;28;20029;-84
2022/09/15 02:48:53;;;;;;;23.65;12.48;;;;;;;12.57;100.00;100553.97;5041956;28;20492;-84
2022/09/15 02:51:18;;;;;;;25.65;12.40;;;;;;;12.51;100.00;100554.50;5050723;28;20032;-84
2022/09/15 02:53:45;;;;;;;25.25;11.80;;;;;;;12.47;100.00;100547.66;5049496;28;20079;-84
2022/09/15 02:56:11;;;;;;;21.92;11.73;;;;;;;12.43;100.00;100548.94;5050798;28;20498;-84
2022/09/15 02:58:36;;;;;;;21.65;12.10;;;;;;;12.39;100.00;100544.78;5049996;28;20029;-84
2022/09/15 03:01:04;;;;;;;22.95;12.15;;;;;;;12.34;100.00;100553.28;5044388;28;20368;-84
2022/09/15 03:03:33;;;;;;;21.67;11.25;;;;;;;12.31;100.00;100558.06;5045030;28;20504;-84
2022/09/15 03:06:15;;;;;;;22.77;11.90;;;;;;;12.30;100.00;100561.72;5043130;28;20033;-84
2022/09/15 03:08:46;;;;;;;25.98;11.75;;;;;;;12.27;100.00;100564.69;5035344;28;20124;-84
2022/09/15 03:11:11;;;;;;;26.40;13.60;;;;;;;12.23;100.00;100561.41;5037764;28;20060;-83
2022/09/15 03:13:37;;;;;;;25.20;13.32;;;;;;;12.24;100.00;100561.28;5049067;28;20041;-83
2022/09/15 03:16:08;;;;;;;26.30;12.50;;;;;;;12.26;100.00;100557.59;5049070;28;20070;-84
2022/09/15 03:18:33;;;;;;;25.10;13.40;;;;;;;12.26;100.00;100566.53;5049857;28;20028;-84
2022/09/15 03:21:00;;;;;;;27.77;13.35;;;;;;;12.28;100.00;100561.00;5039157;28;20025;-84
2022/09/15 03:23:26;;;;;;;23.80;13.15;;;;;;;12.30;100.00;100564.41;5048397;28;20571;-84
2022/09/15 03:25:51;;;;;;;24.90;12.98;;;;;;;12.32;100.00;100568.69;5048638;28;20032;-84
2022/09/15 03:28:16;;;;;;;25.65;13.93;;;;;;;12.34;100.00;100571.25;5049486;28;20021;-84
2022/09/15 03:30:41;;;;;;;25.58;14.35;;;;;;;12.34;100.00;100572.13;5050287;28;20150;-84
2022/09/15 03:33:07;;;;;;;24.83;13.45;;;;;;;12.34;100.00;100576.66;5050058;28;20029;-84
2022/09/15 03:35:33;;;;;;;25.85;14.48;;;;;;;12.36;100.00;100580.09;5049115;28;20107;-84
2022/09/15 03:38:00;;;;;;;25.90;15.10;;;;;;;12.40;100.00;100581.50;5051408;28;20491;-84
2022/09/15 03:40:26;;;;;;;28.63;14.20;;;;;;;12.43;100.00;100583.97;5049186;28;20061;-84
2022/09/15 03:42:51;;;;;;;25.10;15.13;;;;;;;12.46;100.00;100586.41;5049294;28;20071;-84
2022/09/15 03:45:16;;;;;;;27.02;14.93;;;;;;;12.46;100.00;100589.09;5035435;28;20025;-84
2022/09/15 03:47:41;;;;;;;24.48;13.95;;;;;;;12.48;100.00;100584.41;5049326;28;20492;-84
2022/09/15 03:50:07;;;;;;;25.55;13.82;;;;;;;12.50;100.00;100581.59;5048656;28;20131;-84
2022/09/15 03:52:32;;;;;;;26.98;15.18;;;;;;;12.53;100.00;100584.91;5049471;28;20400;-85
2022/09/15 03:54:58;;;;;;;26.00;14.23;;;;;;;12.61;100.00;100583.34;5048868;28;20025;-85
2022/09/15 03:57:23;;;;;;;27.25;15.10;;;;;;;12.65;100.00;100584.81;5049686;28;20025;-85
2022/09/15 03:59:48;;;;;;;24.80;14.27;;;;;;;12.65;100.00;100585.69;5039415;28;20480;-84
2022/09/15 04:02:13;;;;;;;28.17;13.85;;;;;;;12.64;100.00;100580.41;5046838;28;20025;-84
2022/09/15 04:04:39;;;;;;;24.67;13.57;;;;;;;12.63;100.00;100584.09;5048891;28;20444;-84
2022/09/15 04:07:05;;;;;;;24.58;14.30;;;;;;;12.62;100.00;100585.94;5048318;28;20504;-84
2022/09/15 04:09:30;;;;;;;25.63;14.52;;;;;;;12.64;100.00;100575.88;5048109;28;20025;-85
2022/09/15 04:11:55;;;;;;;24.92;13.13;;;;;;;12.63;100.00;100576.00;5048547;28;20055;-84
2022/09/15 04:14:21;;;;;;;26.77;12.93;;;;;;;12.61;100.00;100577.97;5049424;28;20037;-84
2022/09/15 04:16:46;;;;;;;24.27;13.70;;;;;;;12.58;100.00;100582.63;5043589;28;20036;-84
2022/09/15 04:19:11;;;;;;;24.27;13.35;;;;;;;12.57;100.00;100578.22;5038475;28;20029;-84
2022/09/15 04:21:37;;;;;;;23.75;13.10;;;;;;;12.56;100.00;100581.06;5045389;28;20136;-84
2022/09/15 04:24:04;;;;;;;23.98;12.90;;;;;;;12.54;100.00;100583.03;5039472;28;20059;-84
2022/09/15 04:26:32;;;;;;;25.33;13.40;;;;;;;12.50;100.00;100581.59;5031248;28;20029;-84
2022/09/15 04:28:59;;;;;;;23.40;13.55;;;;;;;12.50;100.00;100585.13;5046481;28;20135;-84
2022/09/15 04:31:24;;;;;;;27.25;13.27;;;;;;;12.48;100.00;100576.34;5048474;28;20052;-84
2022/09/15 04:33:54;;;;;;;24.27;14.32;;;;;;;12.50;100.00;100581.59;5040613;28;20021;-84
2022/09/15 04:36:24;;;;;;;24.95;13.82;;;;;;;12.50;100.00;100582.44;5049429;28;20028;-84
2022/09/15 04:38:50;;;;;;;24.27;13.20;;;;;;;12.51;100.00;100581.47;5049887;28;20036;-84
2022/09/15 04:41:17;;;;;;;27.45;12.65;;;;;;;12.51;100.00;100583.31;5049655;28;20457;-84
2022/09/15 04:43:42;;;;;;;24.75;13.60;;;;;;;12.53;100.00;100575.94;5045201;28;20033;-84
2022/09/15 04:46:07;;;;;;;25.95;14.93;;;;;;;12.53;100.00;100579.50;5046596;28;20029;-84
2022/09/15 04:48:33;;;;;;;32.08;15.55;;;;;;;12.57;100.00;100585.47;5047260;28;20082;-84
2022/09/15 04:51:12;;;;;;;25.27;14.82;;;;;;;12.59;100.00;100586.19;5047976;28;20500;-84
2022/09/15 04:53:38;;;;;;;24.98;13.43;;;;;;;12.61;100.00;100586.91;5047854;28;20035;-84
2022/09/15 04:56:12;;;;;;;26.08;13.43;;;;;;;12.64;100.00;100585.81;5041181;28;20025;-84
2022/09/15 04:58:43;;;;;;;24.67;15.18;;;;;;;12.65;100.00;100584.81;5049764;28;20499;-84
2022/09/15 05:01:19;;;;;;;28.13;13.40;;;;;;;12.65;100.00;100587.50;5047495;28;20036;-84
2022/09/15 05:03:45;;;;;;;28.15;15.88;;;;;;;12.64;100.00;100583.97;5047973;28;20021;-84
2022/09/15 05:06:13;;;;;;;25.13;13.82;;;;;;;12.64;100.00;100583.13;5048040;28;20025;-84
2022/09/15 05:08:39;;;;;;;24.27;13.60;;;;;;;12.64;100.00;100573.16;5038268;28;20024;-85
2022/09/15 05:11:07;;;;;;;24.90;14.77;;;;;;;12.63;100.00;100576.00;5052725;28;20046;-85
2022/09/15 05:13:34;;;;;;;25.30;13.63;;;;;;;12.61;100.00;100572.56;5041844;28;20032;-85
2022/09/15 05:16:11;;;;;;;27.80;14.13;;;;;;;12.61;100.00;100573.44;5046200;28;20032;-85
2022/09/15 05:18:37;;;;;;;26.27;13.68;;;;;;;12.57;100.00;100567.44;5046433;28;20079;-85
2022/09/15 05:21:05;;;;;;;25.27;14.68;;;;;;;12.57;100.00;100569.28;5034121;28;20536;-85
2022/09/15 05:23:31;;;;;;;25.23;13.50;;;;;;;12.56;100.00;100571.16;5048344;28;20536;-85
2022/09/15 05:25:59;;;;;;;24.27;13.32;;;;;;;12.61;100.00;100580.66;5048498;28;20500;-85
2022/09/15 05:28:24;;;;;;;25.38;14.23;;;;;;;12.61;100.00;100577.97;5048476;28;20507;-85
2022/09/15 05:30:54;;;;;;;25.10;13.52;;;;;;;12.61;100.00;100576.13;5042873;28;20028;-85
2022/09/15 05:33:21;;;;;;;24.60;12.75;;;;;;;12.62;100.00;100577.84;5055805;28;20017;-84
2022/09/15 05:35:57;;;;;;;23.40;13.30;;;;;;;12.63;100.00;100586.78;5048749;28;20020;-84
2022/09/15 05:38:24;;;;;;;27.75;13.65;;;;;;;12.62;100.00;100590.47;5044260;28;20392;-84
2022/09/15 05:40:49;;;;;;;29.20;15.02;;;;;;;12.64;100.00;100591.19;5035152;28;20017;-84
2022/09/15 05:43:16;;;;;;;26.23;15.57;;;;;;;12.66;100.00;100597.31;5040951;28;20091;-84
2022/09/15 05:45:41;;;;;;;25.42;14.40;;;;;;;12.69;100.00;100602.44;5044298;28;20029;-84
2022/09/15 05:48:08;;;;;;;25.38;15.48;;;;;;;12.71;100.00;100603.16;5048476;28;20029;-84
2022/09/15 05:50:34;;;;;;;24.48;14.13;;;;;;;12.73;100.00;100601.19;5046195;28;20079;-84
2022/09/15 05:53:02;;;;;;;26.27;15.23;;;;;;;12.75;100.00;100612.69;5041618;28;20034;-84
2022/09/15 05:55:28;;;;;;;26.67;14.70;;;;;;;12.77;100.00;100610.72;5039463;28;20143;-84
2022/09/15 05:57:53;;;;;;;26.15;14.05;;;;;;;12.80;100.00;100612.28;5044209;28;20111;-85
2022/09/15 06:00:19;;;;;;;25.77;14.48;;;;;;;12.80;100.00;100615.84;5047328;28;20108;-85
2022/09/15 06:02:44;;;;;;;24.48;14.07;;;;;;;12.82;100.00;100615.72;5042261;28;20128;-85
2022/09/15 06:05:09;;;;;;;26.17;15.23;;;;;;;12.83;100.00;100615.56;5041109;28;20029;-85
2022/09/15 06:07:35;;;;;;;25.08;15.07;;;;;;;12.85;100.00;100615.44;5039701;28;20474;-86
2022/09/15 06:10:01;;;;;;;29.98;15.55;;;;;;;12.85;100.00;100618.97;5043002;28;20049;-85
2022/09/15 06:12:26;;;;;;;26.08;14.25;;;;;;;12.87;100.00;100622.41;5039102;28;20124;-85
2022/09/15 06:14:52;;;;;;;26.95;15.70;;;;;;;12.89;100.00;100625.81;5040041;28;20033;-85
2022/09/15 06:17:17;;;;;;;31.58;16.27;;;;;;;12.90;100.00;100622.16;5041426;28;20029;-85
2022/09/15 06:19:42;;;;;;;26.15;14.95;;;;;;;12.95;100.00;100635.22;5040208;28;20063;-85
2022/09/15 06:22:08;;;;;;;28.27;15.80;;;;;;;12.99;100.00;100631.28;5041709;28;20021;-85
2022/09/15 06:24:33;;;;;;;28.90;16.63;;;;;;;13.02;100.00;100631.00;5038161;28;20025;-85
2022/09/15 06:26:59;;;;;;;29.25;16.15;;;;;;;13.06;100.00;100632.47;5038972;28;20023;-85
2022/09/15 06:29:24;;;;;;;32.45;16.75;;;;;;;13.11;100.00;100641.00;5036631;28;20396;-85
2022/09/15 06:31:49;;;;;;;28.85;15.65;;;;;;;13.16;100.00;100639.75;5040770;28;20060;-85
2022/09/15 06:34:15;;;;;;;26.42;16.42;;;;;;;13.20;100.00;100643.88;5060449;28;20021;-85
2022/09/15 06:36:40;;;;;;;27.88;16.73;;;;;;;13.24;100.00;100640.78;5048058;28;20067;-85
2022/09/15 06:39:06;;;;;;;30.05;16.58;;;;;;;13.30;100.00;100647.47;5040212;28;20029;-85
2022/09/15 06:41:31;;;;;;;28.85;17.33;;;;;;;13.34;100.00;100645.34;5043615;28;20029;-85
2022/09/15 06:43:56;;;;;;;26.70;15.27;;;;;;;13.38;100.00;100644.13;5035928;28;20033;-85
2022/09/15 06:46:24;;;;;;;28.67;16.85;;;;;;;13.39;100.00;100645.84;5038634;28;20063;-85
2022/09/15 06:48:50;;;;;;;25.45;15.25;;;;;;;13.40;100.00;100645.72;5043251;28;20021;-85
2022/09/15 06:51:18;;;;;;;29.85;16.52;;;;;;;13.44;100.00;100648.97;5041093;28;20033;-85
2022/09/15 06:53:44;;;;;;;25.70;16.67;;;;;;;13.45;100.00;100650.69;5030101;28;20033;-85
2022/09/15 06:56:13;;;;;;;27.92;16.05;;;;;;;13.48;100.00;100655.81;5065240;28;20024;-85
2022/09/15 06:58:40;;;;;;;29.27;17.08;;;;;;;13.52;100.00;100668.06;5044176;28;20029;-85
2022/09/15 07:01:08;;;;;;;28.50;16.23;;;;;;;13.55;100.00;100662.38;5044805;28;20033;-86
2022/09/15 07:03:35;;;;;;;30.48;16.15;;;;;;;13.59;100.00;100665.69;5038475;28;20032;-85
2022/09/15 07:06:00;;;;;;;26.65;15.85;;;;;;;13.62;100.00;100670.81;5048961;28;20056;-85
2022/09/15 07:08:25;;;;;;;25.00;15.45;;;;;;;13.68;100.00;100669.41;5037534;28;20027;-85
2022/09/15 07:10:51;;;;;;;29.95;16.90;;;;;;;13.70;100.00;100670.13;5037367;28;20067;-85
2022/09/15 07:13:16;;;;;;;28.08;16.67;;;;;;;13.74;100.00;100675.09;5037311;28;20032;-85
2022/09/15 07:15:52;;;;;;;27.52;16.65;;;;;;;13.80;100.00;100679.94;5037834;28;20017;-85
2022/09/15 07:18:17;;;;;;;27.98;16.67;;;;;;;13.87;100.00;100682.97;5033861;28;20504;-85
2022/09/15 07:20:43;;;;;;;25.40;14.80;;;;;;;13.90;100.00;100679.97;5029405;28;20033;-85
2022/09/15 07:23:08;;;;;;;31.20;15.40;;;;;;;13.95;100.00;100687.66;5035510;28;20022;-85
2022/09/15 07:25:34;;;;;;;31.42;16.42;;;;;;;13.97;100.00;100686.53;5052272;28;20032;-85
2022/09/15 07:28:00;;;;;;;27.90;16.10;;;;;;;13.99;100.00;100683.69;5038848;28;20077;-85
2022/09/15 07:30:25;;;;;;;29.30;15.75;;;;;;;14.04;100.00;100684.16;5032320;28;20461;-85
2022/09/15 07:32:51;;;;;;;27.55;15.60;;;;;;;14.10;100.00;100688.13;5033840;28;20542;-85
2022/09/15 07:35:16;;;;;;;25.98;13.98;;;;;;;14.12;100.00;100689.69;5037322;28;20143;-85
2022/09/15 07:37:43;;;;;;;29.17;14.65;;;;;;;14.14;100.00;100689.56;5030886;28;20072;-85
2022/09/15 07:40:10;;;;;;;26.83;15.73;;;;;;;14.19;100.00;100692.72;5032032;28;20033;-85
2022/09/15 07:42:35;;;;;;;26.73;15.55;;;;;;;14.24;100.00;100698.53;5035645;28;20651;-85
2022/09/15 07:45:01;;;;;;;27.00;14.63;;;;;;;14.27;100.00;100697.41;5036951;28;20030;-85
2022/09/15 07:47:26;;;;;;;25.38;13.65;;;;;;;14.31;100.00;100696.97;5031534;28;20091;-85
2022/09/15 07:49:51;;;;;;;28.27;15.35;;;;;;;14.33;100.00;100696.84;5033032;28;20602;-85
2022/09/15 07:52:17;;;;;;;29.23;15.02;;;;;;;14.37;100.00;100689.31;5036895;28;20497;-85
2022/09/15 07:54:42;;;;;;;26.38;14.43;;;;;;;14.39;100.00;100690.84;5036052;28;20399;-81
2022/09/15 07:57:08;;;;;;;25.95;14.45;;;;;;;14.41;100.00;100699.69;5033911;28;20033;-86
2022/09/15 07:59:33;;;;;;;26.50;13.60;;;;;;;14.43;100.00;100707.66;5035778;28;20024;-85
2022/09/15 08:01:58;;;;;;;24.65;13.90;;;;;;;14.46;100.00;100707.38;5039370;28;20025;-85
2022/09/15 08:04:24;;;;;;;25.88;13.70;;;;;;;14.50;100.00;100706.94;5035342;28;20033;-85
2022/09/15 08:06:49;;;;;;;26.55;13.63;;;;;;;14.51;100.00;100710.53;5030687;28;20473;-85
2022/09/15 08:09:16;;;;;;;25.88;12.90;;;;;;;14.51;100.00;100707.81;5030458;28;20082;-86
2022/09/15 08:11:42;;;;;;;27.02;12.52;;;;;;;14.55;100.00;100717.34;5039785;28;20044;-85
2022/09/15 08:14:08;;;;;;;25.25;13.02;;;;;;;14.57;100.00;100720.78;5031871;28;20041;-85
2022/09/15 08:16:33;;;;;;;27.35;11.73;;;;;;;14.59;100.00;100720.63;5035138;28;20109;-85
2022/09/15 08:18:59;;;;;;;25.27;12.68;;;;;;;14.59;100.00;100712.53;5035990;28;20107;-85
2022/09/15 08:21:26;;;;;;;25.38;12.82;;;;;;;14.61;100.00;100714.13;5035654;28;20029;-85
2022/09/15 08:23:57;;;;;;;26.88;12.88;;;;;;;14.66;100.00;100719.94;5029764;28;20485;-85
2022/09/15 08:26:23;;;;;;;25.35;11.85;;;;;;;14.72;100.00;100723.94;5036732;28;20027;-83
2022/09/15 08:28:49;;;;;;;23.77;12.65;;;;;;;14.75;100.00;100723.66;5037921;28;20033;-85
2022/09/15 08:31:15;;;;;;;23.98;11.20;;;;;;;14.79;100.00;100732.34;5036011;28;20033;-85
2022/09/15 08:33:41;;;;;;;25.25;11.30;;;;;;;14.81;100.00;100735.75;5035674;28;20094;-85
2022/09/15 08:36:12;;;;;;;24.65;12.07;;;;;;;14.83;100.00;100736.44;5036606;28;20325;-85
2022/09/15 08:38:39;;;;;;;25.33;10.50;;;;;;;14.86;100.00;100736.16;5033808;28;20427;-85
2022/09/15 08:41:18;;;;;;;22.58;11.30;;;;;;;14.89;100.00;100738.59;5039867;28;20021;-85
2022/09/15 08:43:51;;;;;;;25.15;12.20;;;;;;;14.90;100.00;100748.41;5033639;28;20492;-85
2022/09/15 08:46:22;;;;;;;24.88;13.52;;;;;;;14.93;100.00;100741.88;5031375;28;20029;-85
2022/09/15 08:48:55;;;;;;;25.00;11.90;;;;;;;14.94;100.00;100746.28;5042903;28;20495;-85
2022/09/15 08:51:28;;;;;;;22.67;11.43;;;;;;;14.96;100.00;100742.41;5037566;28;20040;-85
2022/09/15 08:54:02;;;;;;;28.58;11.65;;;;;;;14.99;100.00;100747.56;5033006;28;20048;-85
2022/09/15 08:56:28;;;;;;;28.33;11.77;;;;;;;15.02;100.00;100746.41;5028210;28;20034;-85
2022/09/15 08:58:54;;;;;;;22.83;11.27;;;;;;;15.03;100.00;100751.69;5037714;28;20025;-86
2022/09/15 09:01:31;;;;;;;24.17;11.25;;;;;;;15.09;100.00;100757.53;5034521;28;20339;-85
2022/09/15 09:04:02;;;;;;;26.70;11.77;;;;;;;15.12;100.00;100758.06;5040158;28;20481;-85
2022/09/15 09:06:52;;;;;;;23.23;11.18;;;;;;;15.16;100.00;100759.50;5039333;28;20045;-85
2022/09/15 09:09:39;;;;;;;25.73;11.25;;;;;;;15.23;100.00;100769.75;5060144;28;20033;-85
2022/09/15 09:12:43;;;;;;;21.08;9.30;;;;;;;15.27;100.00;100776.59;5031071;28;20060;-85
2022/09/15 09:15:24;;;;;;;21.10;9.85;;;;;;;15.31;100.00;100780.72;5036032;28;20034;-85
2022/09/15 09:18:12;;;;;;;25.38;8.88;;;;;;;15.34;100.00;100773.16;5056648;28;20041;-85
2022/09/15 09:20:54;;;;;;;22.55;8.52;;;;;;;15.39;100.00;100780.84;5037022;28;20474;-85
2022/09/15 09:23:25;;;;;;;20.33;8.63;;;;;;;15.43;100.00;100784.09;5046017;28;20086;-85
2022/09/15 09:25:51;;;;;;;24.25;8.02;;;;;;;15.47;100.00;100782.81;5040694;28;20811;-85
2022/09/15 09:28:48;;;;;;;18.45;7.70;;;;;;;15.52;100.00;100778.69;5044135;28;20032;-85
2022/09/15 09:31:20;;;;;;;17.10;7.07;;;;;;;15.54;100.00;100778.53;5038480;28;20485;-85
2022/09/15 09:34:14;;;;;;;17.85;6.68;;;;;;;15.57;100.00;100775.53;5037939;28;20151;-85
2022/09/15 09:36:41;;;;;;;17.50;6.13;;;;;;;15.57;100.00;100777.41;5038747;28;20026;-85
2022/09/15 09:39:12;;;;;;;19.33;6.85;;;;;;;15.60;100.00;100779.81;5044161;28;20075;-85
2022/09/15 09:41:39;;;;;;;20.52;6.15;;;;;;;15.60;100.00;100777.94;5049961;28;20120;-85
2022/09/15 09:44:10;;;;;;;16.70;6.00;;;;;;;15.57;97.66;100785.53;5050186;28;20036;-86
2022/09/15 09:46:35;;;;;;;21.33;6.50;;;;;;;15.56;98.56;100779.22;5050736;28;20147;-86
2022/09/15 09:49:15;;;;;;;17.95;6.28;;;;;;;15.57;98.94;100778.22;5050512;28;20119;-85
2022/09/15 09:51:58;;;;;;;18.13;6.53;;;;;;;15.58;100.00;100782.66;5042547;28;20485;-85
2022/09/15 09:54:27;;;;;;;17.27;6.57;;;;;;;15.54;97.83;100782.09;5030942;28;20029;-85
2022/09/15 09:56:53;;;;;;;21.65;7.25;;;;;;;15.52;97.76;100778.69;5029789;28;20025;-85
2022/09/15 09:59:43;;;;;;;20.15;8.20;;;;;;;15.54;100.00;100782.09;5031736;28;20090;-85
2022/09/15 10:02:26;;;;;;;21.13;7.88;;;;;;;15.52;99.43;100781.38;5048886;28;20059;-85
2022/09/15 10:05:18;;;;;;;22.30;8.05;;;;;;;15.53;99.59;100784.94;5032934;28;20137;-85
2022/09/15 10:07:43;;;;;;;21.35;8.55;;;;;;;15.48;99.22;100785.38;5032779;28;20449;-86
2022/09/15 10:10:19;;;;;;;19.67;7.10;;;;;;;15.47;98.17;100785.53;5032607;28;20063;-85
2022/09/15 10:12:46;;;;;;;18.80;8.25;;;;;;;15.43;96.88;100793.06;5032571;28;20412;-86
2022/09/15 10:15:27;;;;;;;17.50;6.68;;;;;;;15.43;97.43;100787.66;5032057;28;20017;-85
2022/09/15 10:17:56;;;;;;;15.70;5.55;;;;;;;15.38;95.50;100800.81;5032539;28;20079;-86
2022/09/15 10:20:46;;;;;;;18.63;6.05;;;;;;;15.41;97.87;100792.38;5032649;28;20087;-85
2022/09/15 10:23:17;;;;;;;19.90;6.63;;;;;;;15.40;98.69;100795.25;5033041;28;20057;-85
2022/09/15 10:25:43;;;;;;;21.30;6.30;;;;;;;15.36;97.60;100787.41;5032384;28;20037;-86
2022/09/15 10:28:14;;;;;;;16.55;5.22;;;;;;;15.35;97.79;100793.81;5032403;28;20499;-85
2022/09/15 10:31:03;;;;;;;19.85;5.95;;;;;;;15.38;99.25;100793.53;5036653;28;20172;-85
2022/09/15 10:33:33;;;;;;;16.77;4.78;;;;;;;15.35;97.97;100784.84;5034052;28;20030;-85
2022/09/15 10:36:02;;;;;;;10.77;3.88;;;;;;;15.33;96.63;100781.41;5032038;28;20029;-86
2022/09/15 10:38:57;;;;;;;17.20;4.30;;;;;;;15.36;99.16;100781.16;5032383;28;20109;-85
2022/09/15 10:41:33;;;;;;;11.32;3.97;;;;;;;15.33;97.39;100782.28;5024543;28;20044;-85
2022/09/15 10:44:17;;;;;;;9.40;3.28;;;;;;;15.41;98.88;100792.38;5032208;28;20112;-85
2022/09/15 10:47:19;;;;;;;9.63;3.13;;;;;;;15.47;98.36;100790.94;5048808;28;20056;-85
2022/09/15 10:49:57;;;;;;;10.00;3.10;;;;;;;15.53;97.88;100798.47;5033411;28;20091;-85
2022/09/15 10:52:57;;;;;;;10.65;3.10;;;;;;;15.58;98.27;100801.63;5033350;28;20108;-85
2022/09/15 10:55:36;;;;;;;13.57;3.80;;;;;;;15.64;100.00;100802.91;5025242;28;20038;-85
2022/09/15 10:58:26;;;;;;;10.50;3.53;;;;;;;15.66;100.00;100798.19;5031816;28;20029;-85
2022/09/15 11:01:28;;;;;;;14.85;3.50;;;;;;;15.69;100.00;100806.84;5045124;28;20455;-85
2022/09/15 11:04:12;;;;;;;17.05;3.75;;;;;;;15.76;100.00;100795.44;5036215;28;20060;-85
2022/09/15 11:07:23;;;;;;;8.10;2.33;;;;;;;15.77;97.89;100803.44;5048804;28;20131;-86
2022/09/15 11:10:13;;;;;;;6.30;2.60;;;;;;;15.82;97.95;100803.84;5026249;28;20045;-87
2022/09/15 11:13:11;;;;;;;10.30;2.85;;;;;;;15.89;97.50;100804.97;5031179;28;20132;-86
2022/09/15 11:16:08;;;;;;;11.48;2.60;;;;;;;15.93;94.67;100810.09;5031545;28;20033;-86
2022/09/15 11:18:58;;;;;;;9.68;2.67;;;;;;;16.00;95.68;100806.66;5031668;28;20024;-85
2022/09/15 11:21:33;;;;;;;6.68;2.33;;;;;;;16.02;92.83;100801.09;5048032;28;20128;-85
2022/09/15 11:24:11;;;;;;;14.48;2.88;;;;;;;16.04;92.09;100799.91;5032881;28;20026;-85